PKWA Airport Information

Runway Information
Runway 06 Length 6668 ft width 198 ft
Elevation 9 ft Threshold ft Heading 73
Runway 24 Length 6668 ft Width 198 ft
Elevation 9 ft Threshold ft Heading 253
Airport Frequencies
Type A/G Name SAN FRANCI Frequency 299.8 MHZ
Type APP Name KWAJALEIN Frequency 126.2 MHZ
Type TWR Name KWAJALEIN Frequency 126.2 MHZ
Airport Navaids
Type TACAN Name Bucholz Frequency 114300 KHZ
Type NDB Name Bucholz Frequency 359 KHZ
Airport Weather Information & NOTAM
ADDS - METARS form results

(2343 UTC 28 June 2022)
Data provider http://aviationweather.gov/metar/data/
 
METAR text: PKWA 282340Z AUTO 07012KT 10SM SCT017 29/25 A2978 RMK AO2 T02940251
Conditions at: PKWA (KWAJALEIN/BUCHOL, MH, MH) observed 2340 UTC 28 June 2022
Temperature: 29.4°C (85°F)
Dewpoint: 25.1°C (77°F) [RH = 78%]
Pressure (altimeter): 29.78 inches Hg (1008.5 mb)
Winds: from the ENE (70 degrees) at 14 MPH (12 knots; 6.2 m/s)
Visibility: 10 or more miles (16+ km)
Ceiling: at least 12,000 feet AGL
Clouds: scattered clouds at 1700 feet AGL
Weather: automated observation with no human augmentation;
there may or may not be significant weather present at this time

METAR text: PKWA 282320Z AUTO 07012KT 10SM SCT017 SCT023 SCT028 29/25 A2978 RMK AO2 T02920251 PNO
Conditions at: PKWA (KWAJALEIN/BUCHOL, MH, MH) observed 2320 UTC 28 June 2022
Temperature: 29.2°C (85°F)
Dewpoint: 25.1°C (77°F) [RH = 79%]
Pressure (altimeter): 29.78 inches Hg (1008.5 mb)
Winds: from the ENE (70 degrees) at 14 MPH (12 knots; 6.2 m/s)
Visibility: 10 or more miles (16+ km)
Ceiling: at least 12,000 feet AGL
Clouds: scattered clouds at 1700 feet AGL
scattered clouds at 2300 feet AGL
scattered clouds at 2800 feet AGL
Weather: automated observation with no human augmentation;
there may or may not be significant weather present at this time

METAR text: PKWA 282300Z AUTO 07014KT 10SM SCT017 29/25 A2979 RMK AO2 T02900251
Conditions at: PKWA (KWAJALEIN/BUCHOL, MH, MH) observed 2300 UTC 28 June 2022
Temperature: 29.0°C (84°F)
Dewpoint: 25.1°C (77°F) [RH = 80%]
Pressure (altimeter): 29.79 inches Hg (1008.9 mb)
Winds: from the ENE (70 degrees) at 16 MPH (14 knots; 7.2 m/s)
Visibility: 10 or more miles (16+ km)
Ceiling: at least 12,000 feet AGL
Clouds: scattered clouds at 1700 feet AGL
Weather: automated observation with no human augmentation;
there may or may not be significant weather present at this time

Forecast for: PKWA (KWAJALEIN/BUCHOL, MH, MH)
Text: PKWA 281741Z 2818/2918 04011KT P6SM SCT018 BKN050
Forecast period: 1800 UTC 28 June 2022 to 1800 UTC 29 June 2022
Forecast type: FROM: standard forecast or significant change
Winds: from the NE (40 degrees) at 13 MPH (11 knots; 5.7 m/s)
Visibility: 6 or more miles (10+ km)
Ceiling: 5000 feet AGL
Clouds: scattered clouds at 1800 feet AGL
broken clouds at 5000 feet AGL
Weather: no significant weather forecast for this period